Time;durP1;ratioP1;P1;durP2;ratioP2;P2;SDS_P1;SDS_P2;PMS_P1;PMS_P2;Temp;Humidity;BMP_temperature;BMP_pressure;BME280_temperature;BME280_humidity;BME280_pressure;Samples;Min_cycle;Max_cycle;Signal;HPM_P1;HPM_P2
2023/01/18 00:00:51;;;;;;;5.22;3.33;;;10.80;99.90;;;;;;5096350;28;20545;-86
2023/01/18 00:03:17;;;;;;;6.55;4.78;;;10.80;99.90;;;;;;5096409;28;20196;-90
2023/01/18 00:05:42;;;;;;;6.90;4.57;;;10.90;99.90;;;;;;5097491;28;20172;-86
2023/01/18 00:08:13;;;;;;;5.30;4.50;;;10.90;99.90;;;;;;5097335;28;20460;-88
2023/01/18 00:10:39;;;;;;;9.02;5.85;;;10.90;99.90;;;;;;5096363;28;20184;-89
2023/01/18 00:13:05;;;;;;;9.95;6.75;;;11.00;99.90;;;;;;5097282;28;20216;-86
2023/01/18 00:15:32;;;;;;;9.73;7.13;;;11.00;99.90;;;;;;5097421;28;20185;-90
2023/01/18 00:17:58;;;;;;;7.07;5.63;;;11.10;99.90;;;;;;5097502;28;20219;-86
2023/01/18 00:20:26;;;;;;;7.10;5.20;;;11.20;99.90;;;;;;5095977;28;20172;-86
2023/01/18 00:22:52;;;;;;;5.45;4.38;;;11.30;99.90;;;;;;5096141;28;20681;-91
2023/01/18 00:25:19;;;;;;;6.32;4.22;;;11.40;99.90;;;;;;5096117;28;20225;-90
2023/01/18 00:27:53;;;;;;;8.07;5.70;;;11.40;99.90;;;;;;5096975;28;20310;-90
2023/01/18 00:30:24;;;;;;;11.30;6.63;;;11.40;99.90;;;;;;5097076;28;20396;-86
2023/01/18 00:32:55;;;;;;;9.35;5.10;;;11.50;99.90;;;;;;5097198;28;20413;-84
2023/01/18 00:35:22;;;;;;;7.40;4.72;;;11.50;99.90;;;;;;5095815;28;20181;-85
2023/01/18 00:37:50;;;;;;;5.95;4.68;;;11.60;99.90;;;;;;5095794;28;20741;-90
2023/01/18 00:40:16;;;;;;;6.80;5.10;;;11.50;99.90;;;;;;5095540;28;20637;-85
2023/01/18 00:45:26;;;;;;;3.13;2.60;;;11.50;99.90;;;;;;5096721;28;20164;-85
2023/01/18 00:47:52;;;;;;;3.50;2.10;;;11.40;99.90;;;;;;5099487;28;20216;-84
2023/01/18 00:50:19;;;;;;;3.27;2.50;;;11.40;99.90;;;;;;5098784;28;20222;-85
2023/01/18 00:52:46;;;;;;;2.50;2.00;;;11.40;99.90;;;;;;5095555;28;20196;-86
2023/01/18 00:55:14;;;;;;;2.63;1.77;;;11.40;99.90;;;;;;5095048;28;20585;-85
2023/01/18 00:57:39;;;;;;;2.08;1.70;;;11.30;99.90;;;;;;5096362;28;20203;-90
2023/01/18 01:00:08;;;;;;;2.17;1.65;;;11.40;99.90;;;;;;5095900;28;20234;-89
2023/01/18 01:02:38;;;;;;;1.63;1.50;;;11.40;99.90;;;;;;5095462;28;20196;-87
2023/01/18 01:07:49;;;;;;;2.97;2.10;;;11.50;99.90;;;;;;5096262;28;20656;-88
2023/01/18 01:10:15;;;;;;;5.53;2.50;;;11.50;99.90;;;;;;5095026;28;20516;-85
2023/01/18 01:26:26;;;;;;;19.17;13.03;;;11.80;99.90;;;;;;5096026;28;20822;-86
2023/01/18 01:28:52;;;;;;;6.55;5.95;;;11.80;99.90;;;;;;5096283;28;20433;-90
2023/01/18 01:31:19;;;;;;;7.53;6.83;;;11.80;99.90;;;;;;5095652;28;20221;-85
2023/01/18 01:33:49;;;;;;;5.13;4.53;;;11.80;99.90;;;;;;5099858;28;20239;-85
2023/01/18 01:36:27;;;;;;;7.93;7.10;;;11.80;99.90;;;;;;5096430;28;20183;-89
2023/01/18 01:38:53;;;;;;;2.83;2.53;;;11.80;99.90;;;;;;5094476;28;20960;-85
2023/01/18 01:41:32;;;;;;;2.53;1.93;;;11.70;99.90;;;;;;5094312;28;20562;-86
2023/01/18 01:43:59;;;;;;;2.30;1.60;;;11.70;99.90;;;;;;5094495;28;20498;-86
2023/01/18 01:46:44;;;;;;;2.10;1.45;;;11.80;99.90;;;;;;5094303;28;20516;-91
2023/01/18 01:49:18;;;;;;;2.67;2.00;;;11.70;99.90;;;;;;5095671;28;20192;-89
2023/01/18 01:51:57;;;;;;;2.67;2.47;;;11.60;99.90;;;;;;5094222;28;20640;-91
2023/01/18 01:54:29;;;;;;;2.17;1.97;;;11.60;99.90;;;;;;5094769;28;20444;-86
2023/01/18 01:57:04;;;;;;;3.20;2.50;;;11.60;99.90;;;;;;5094377;28;20476;-90
2023/01/18 01:59:32;;;;;;;2.88;2.55;;;11.50;99.90;;;;;;5095572;28;20164;-85
2023/01/18 02:01:59;;;;;;;3.03;2.50;;;11.50;99.90;;;;;;5095743;28;20521;-88
2023/01/18 02:04:25;;;;;;;3.97;2.90;;;11.50;99.90;;;;;;5095330;28;20185;-87
2023/01/18 02:06:50;;;;;;;3.38;2.72;;;11.50;99.90;;;;;;5093981;28;20453;-91
2023/01/18 02:09:21;;;;;;;5.83;3.50;;;11.40;99.90;;;;;;5095180;28;20190;-84
2023/01/18 02:11:50;;;;;;;3.60;3.13;;;11.40;99.90;;;;;;5094028;28;20177;-86
2023/01/18 02:14:17;;;;;;;3.25;2.80;;;11.40;99.90;;;;;;5095180;28;20168;-91
2023/01/18 02:16:45;;;;;;;9.98;3.60;;;11.40;99.90;;;;;;5094055;28;20537;-90
2023/01/18 02:19:30;;;;;;;3.95;3.55;;;11.40;99.90;;;;;;5095158;28;20262;-85
2023/01/18 02:22:10;;;;;;;3.70;3.05;;;11.40;99.90;;;;;;5094243;28;20191;-91
2023/01/18 02:24:54;;;;;;;3.65;3.25;;;11.30;99.90;;;;;;5098930;28;20277;-85
2023/01/18 02:27:23;;;;;;;4.30;3.90;;;11.30;99.90;;;;;;5096271;28;20227;-91
2023/01/18 02:29:52;;;;;;;4.85;4.20;;;11.30;99.90;;;;;;5095224;28;20180;-86
2023/01/18 02:32:43;;;;;;;4.90;3.95;;;11.30;99.90;;;;;;5094260;28;20582;-90
2023/01/18 02:35:41;;;;;;;4.68;4.18;;;11.30;99.90;;;;;;5093753;28;20223;-85
2023/01/18 02:38:20;;;;;;;9.48;5.40;;;11.30;99.90;;;;;;5093631;28;20695;-90
2023/01/18 02:41:08;;;;;;;7.90;5.78;;;11.20;99.90;;;;;;5093647;28;20180;-89
2023/01/18 02:46:29;;;;;;;6.53;5.00;;;11.00;99.90;;;;;;5094866;28;20209;-90
2023/01/18 02:48:57;;;;;;;7.38;5.45;;;11.00;99.90;;;;;;5094468;28;20283;-91
2023/01/18 02:51:23;;;;;;;5.88;4.72;;;10.90;99.90;;;;;;5094727;28;20165;-89
2023/01/18 02:53:49;;;;;;;4.50;3.95;;;10.90;99.90;;;;;;5094366;28;20220;-85
2023/01/18 02:56:33;;;;;;;5.60;3.70;;;10.90;99.90;;;;;;5093073;28;20234;-85
2023/01/18 02:59:11;;;;;;;4.35;3.95;;;10.90;99.90;;;;;;5093154;28;20583;-89
2023/01/18 03:01:46;;;;;;;5.82;4.90;;;10.90;99.90;;;;;;5093298;28;20230;-88
2023/01/18 03:04:26;;;;;;;5.65;4.47;;;10.90;99.90;;;;;;5096174;28;20245;-89
2023/01/18 03:07:02;;;;;;;4.13;3.63;;;10.90;99.90;;;;;;5094495;28;20210;-86
2023/01/18 03:09:28;;;;;;;6.50;4.25;;;10.90;99.90;;;;;;5092856;28;20230;-85
2023/01/18 03:12:07;;;;;;;4.80;4.30;;;10.90;99.90;;;;;;5094360;28;20207;-91
2023/01/18 03:14:39;;;;;;;4.35;3.80;;;10.90;99.90;;;;;;5092971;28;20181;-90
2023/01/18 03:17:28;;;;;;;5.90;3.90;;;10.90;99.90;;;;;;5094568;28;20175;-90
2023/01/18 03:20:07;;;;;;;6.30;3.63;;;10.80;99.90;;;;;;5079549;28;20188;-84
2023/01/18 03:25:47;;;;;;;3.97;2.67;;;10.80;99.90;;;;;;5094761;28;20230;-90
2023/01/18 03:34:27;;;;;;;3.25;2.95;;;10.80;99.90;;;;;;5094061;28;20699;-91
2023/01/18 03:36:56;;;;;;;3.70;3.40;;;10.80;99.90;;;;;;5093535;28;20652;-85
2023/01/18 03:39:30;;;;;;;2.50;2.30;;;10.80;99.90;;;;;;5092800;28;20181;-91
2023/01/18 03:42:01;;;;;;;4.53;2.90;;;10.80;99.90;;;;;;5092944;28;20177;-90
2023/01/18 03:44:46;;;;;;;3.38;2.50;;;10.90;99.90;;;;;;5094015;28;20172;-90
2023/01/18 03:47:12;;;;;;;3.05;2.67;;;10.90;99.90;;;;;;5095295;28;20231;-92
2023/01/18 03:49:38;;;;;;;2.57;2.37;;;10.90;99.90;;;;;;5096211;28;20180;-88
2023/01/18 03:52:22;;;;;;;2.93;2.47;;;10.90;99.90;;;;;;5094956;28;20199;-86
2023/01/18 03:55:01;;;;;;;3.78;2.10;;;10.90;99.90;;;;;;5092423;28;20181;-90
2023/01/18 03:57:35;;;;;;;1.95;1.80;;;10.90;99.90;;;;;;5094330;28;20597;-91
2023/01/18 04:00:04;;;;;;;2.80;2.13;;;10.80;99.90;;;;;;5093957;28;20192;-90
2023/01/18 04:02:32;;;;;;;2.13;1.92;;;10.80;99.90;;;;;;5092547;28;20197;-85
2023/01/18 04:05:02;;;;;;;2.40;2.05;;;10.80;99.90;;;;;;5092271;28;20184;-86
2023/01/18 04:07:30;;;;;;;3.42;2.20;;;10.80;99.90;;;;;;5092888;28;20221;-86
2023/01/18 04:09:56;;;;;;;2.95;2.10;;;10.80;99.90;;;;;;5093584;28;20721;-86
2023/01/18 04:12:22;;;;;;;4.43;2.30;;;10.80;99.90;;;;;;5092450;28;20204;-85
2023/01/18 04:14:48;;;;;;;2.00;1.80;;;10.80;99.90;;;;;;5092496;28;20271;-87
2023/01/18 04:17:13;;;;;;;5.30;3.70;;;10.80;99.90;;;;;;5092605;28;20204;-88
2023/01/18 04:19:39;;;;;;;12.53;9.50;;;10.80;99.90;;;;;;5093531;28;20563;-83
2023/01/18 04:22:05;;;;;;;6.70;4.83;;;10.80;99.90;;;;;;5092420;28;20193;-86
2023/01/18 04:24:31;;;;;;;8.48;5.72;;;10.90;99.90;;;;;;5092331;28;20183;-92
2023/01/18 04:26:57;;;;;;;2.93;2.70;;;11.00;99.90;;;;;;5092171;28;20212;-90
2023/01/18 04:29:22;;;;;;;5.60;2.67;;;11.10;99.90;;;;;;5095809;28;20172;-89
2023/01/18 04:31:48;;;;;;;5.03;2.70;;;11.20;99.90;;;;;;5096267;28;20420;-91
2023/01/18 04:34:14;;;;;;;2.73;2.47;;;11.20;99.90;;;;;;5092277;28;20192;-90
2023/01/18 04:36:40;;;;;;;3.90;3.10;;;11.20;99.90;;;;;;5097013;28;20184;-85
2023/01/18 04:39:11;;;;;;;3.80;3.00;;;11.10;99.90;;;;;;5097069;28;20278;-91
2023/01/18 04:41:36;;;;;;;8.45;3.80;;;11.10;99.90;;;;;;5097189;28;20176;-86
2023/01/18 04:44:02;;;;;;;4.70;3.60;;;11.00;99.90;;;;;;5095578;28;20266;-90
2023/01/18 04:46:28;;;;;;;4.57;4.17;;;10.90;99.90;;;;;;5098200;28;20179;-87
2023/01/18 04:48:53;;;;;;;5.10;4.60;;;10.90;99.90;;;;;;5097103;28;20196;-91
2023/01/18 04:51:19;;;;;;;5.73;4.47;;;11.00;99.90;;;;;;5095814;28;20576;-85
2023/01/18 04:53:45;;;;;;;6.30;5.70;;;10.90;99.90;;;;;;5097004;28;20242;-89
2023/01/18 04:56:11;;;;;;;6.10;5.50;;;10.80;99.90;;;;;;5097336;28;20216;-91
2023/01/18 04:58:37;;;;;;;8.05;7.25;;;10.90;99.90;;;;;;5096756;28;20455;-86
2023/01/18 05:01:07;;;;;;;11.97;10.77;;;10.90;99.90;;;;;;5095632;28;20173;-86
2023/01/18 05:03:37;;;;;;;11.80;10.60;;;10.80;99.90;;;;;;5095347;28;20200;-90
2023/01/18 05:06:08;;;;;;;9.82;7.15;;;10.80;99.90;;;;;;5096901;28;20221;-90
2023/01/18 05:08:33;;;;;;;4.18;3.58;;;10.70;99.90;;;;;;5096153;28;20208;-87
2023/01/18 05:11:11;;;;;;;4.50;3.30;;;10.60;99.90;;;;;;5096125;28;20200;-85
2023/01/18 05:13:38;;;;;;;5.25;2.85;;;10.50;99.90;;;;;;5094939;28;20193;-89
2023/01/18 05:16:04;;;;;;;3.50;2.88;;;10.40;99.90;;;;;;5094776;28;20268;-90
2023/01/18 05:18:30;;;;;;;5.70;2.78;;;10.40;99.90;;;;;;5106818;28;20589;-87
2023/01/18 05:20:56;;;;;;;3.70;2.50;;;10.40;99.90;;;;;;5097214;28;20169;-90
2023/01/18 05:23:22;;;;;;;2.53;2.33;;;10.50;99.90;;;;;;5095799;28;20510;-86
2023/01/18 05:25:56;;;;;;;2.63;2.25;;;10.50;99.90;;;;;;5108060;28;20542;-86
2023/01/18 05:28:23;;;;;;;2.30;2.10;;;10.50;99.90;;;;;;5111714;27;20255;-90
2023/01/18 05:30:50;;;;;;;2.10;2.00;;;10.50;99.90;;;;;;5094194;28;20187;-85
2023/01/18 05:33:17;;;;;;;2.88;1.98;;;10.60;99.90;;;;;;5096287;28;20196;-90
2023/01/18 05:35:51;;;;;;;1.58;1.48;;;10.70;99.90;;;;;;5104130;28;20187;-86
2023/01/18 05:38:17;;;;;;;1.88;1.77;;;10.70;99.90;;;;;;5101629;28;20565;-86
2023/01/18 05:40:44;;;;;;;2.00;1.70;;;10.80;99.90;;;;;;5093121;28;20192;-85
2023/01/18 05:43:11;;;;;;;2.97;1.42;;;10.90;99.90;;;;;;5111931;28;20282;-90
2023/01/18 05:45:37;;;;;;;2.05;1.30;;;10.90;99.90;;;;;;5107967;28;20234;-88
2023/01/18 05:48:03;;;;;;;1.20;1.10;;;10.90;99.90;;;;;;5114054;28;20211;-86
2023/01/18 05:50:28;;;;;;;1.90;1.00;;;11.00;99.90;;;;;;5111015;28;20596;-86
2023/01/18 05:52:57;;;;;;;2.77;1.60;;;11.10;99.90;;;;;;5100969;28;20488;-91
2023/01/18 05:55:23;;;;;;;2.75;1.60;;;11.20;99.90;;;;;;5101141;28;20254;-86
2023/01/18 05:57:48;;;;;;;1.33;0.90;;;11.20;99.90;;;;;;5109261;28;20605;-86
2023/01/18 06:00:14;;;;;;;1.10;0.97;;;11.30;99.90;;;;;;5096862;28;20239;-90
2023/01/18 06:02:40;;;;;;;1.40;0.70;;;11.30;99.90;;;;;;5100600;28;20562;-90
2023/01/18 06:05:06;;;;;;;2.50;1.00;;;11.30;99.90;;;;;;5095613;28;20929;-89
2023/01/18 06:07:32;;;;;;;3.30;1.47;;;11.20;99.90;;;;;;5115183;28;20241;-85
2023/01/18 06:09:58;;;;;;;4.73;2.73;;;11.20;99.90;;;;;;5098824;28;20435;-85
2023/01/18 06:12:23;;;;;;;6.47;5.97;;;11.10;99.90;;;;;;5104517;28;20252;-86
2023/01/18 06:14:49;;;;;;;7.70;7.00;;;10.70;99.90;;;;;;5107536;28;20665;-86
2023/01/18 06:17:15;;;;;;;6.93;6.30;;;10.50;99.90;;;;;;5116043;28;20269;-90
2023/01/18 06:19:40;;;;;;;7.27;5.67;;;10.20;99.90;;;;;;5108673;28;20412;-86
2023/01/18 06:22:06;;;;;;;5.90;5.50;;;10.20;99.90;;;;;;5112455;28;20199;-88
2023/01/18 06:24:33;;;;;;;7.90;5.90;;;10.10;99.90;;;;;;5096674;28;20321;-89
2023/01/18 06:26:59;;;;;;;10.65;9.55;;;10.10;99.90;;;;;;5101892;28;20257;-87
2023/01/18 06:29:25;;;;;;;13.40;9.57;;;10.10;99.90;;;;;;5104222;28;20696;-85
2023/01/18 06:31:52;;;;;;;17.52;13.85;;;10.10;99.90;;;;;;5092452;28;20187;-88
2023/01/18 06:34:18;;;;;;;17.30;14.63;;;10.00;99.90;;;;;;5108896;27;20393;-87
2023/01/18 06:36:44;;;;;;;6.40;5.90;;;10.00;99.90;;;;;;5102479;28;20180;-84
2023/01/18 06:39:09;;;;;;;8.20;6.97;;;10.10;99.90;;;;;;5093730;28;20188;-86
2023/01/18 06:41:35;;;;;;;8.83;7.83;;;10.20;99.90;;;;;;5114463;27;20433;-87
2023/01/18 06:44:01;;;;;;;12.73;10.35;;;10.20;99.90;;;;;;5095192;28;20550;-87
2023/01/18 06:46:27;;;;;;;25.33;19.33;;;10.20;99.90;;;;;;5100085;28;20632;-87
2023/01/18 06:48:53;;;;;;;7.30;6.65;;;10.30;99.90;;;;;;5108496;28;20286;-83
2023/01/18 06:51:20;;;;;;;7.40;5.43;;;10.30;99.90;;;;;;5098950;28;20337;-85
2023/01/18 06:53:46;;;;;;;5.00;4.60;;;10.30;99.90;;;;;;5096814;28;20208;-85
2023/01/18 06:56:13;;;;;;;5.88;4.88;;;10.20;99.90;;;;;;5093227;28;20220;-85
2023/01/18 06:58:39;;;;;;;14.13;10.68;;;10.20;99.90;;;;;;5096003;28;20273;-85
2023/01/18 07:01:05;;;;;;;7.00;5.47;;;9.90;99.90;;;;;;5103343;28;20284;-87
2023/01/18 07:03:31;;;;;;;18.70;13.60;;;9.70;99.90;;;;;;5110133;28;20414;-87
2023/01/18 07:05:59;;;;;;;11.93;9.65;;;9.70;99.90;;;;;;5105072;28;20971;-85
2023/01/18 07:08:25;;;;;;;19.00;15.70;;;9.70;99.90;;;;;;5108618;28;20302;-84
2023/01/18 07:10:52;;;;;;;12.35;11.13;;;9.70;99.90;;;;;;5108763;28;20211;-84
2023/01/18 07:13:18;;;;;;;8.60;6.65;;;9.80;99.90;;;;;;5112299;28;20614;-87
2023/01/18 07:15:44;;;;;;;5.30;4.80;;;9.90;99.90;;;;;;5112388;28;20160;-87
2023/01/18 07:18:10;;;;;;;5.80;5.25;;;10.00;99.90;;;;;;5100091;28;20204;-86
2023/01/18 07:20:36;;;;;;;7.20;5.77;;;10.10;99.90;;;;;;5109083;28;20175;-88
2023/01/18 07:23:03;;;;;;;5.83;5.27;;;10.20;99.90;;;;;;5096425;28;20200;-87
2023/01/18 07:25:29;;;;;;;11.45;9.88;;;10.20;99.90;;;;;;5103069;28;20184;-86
2023/01/18 07:27:58;;;;;;;19.10;17.40;;;10.10;99.90;;;;;;5109945;28;20223;-90
2023/01/18 07:30:24;;;;;;;14.10;11.23;;;10.10;99.90;;;;;;5107288;28;20672;-89
2023/01/18 07:32:52;;;;;;;8.63;7.83;;;10.10;99.90;;;;;;5105927;28;20611;-87
2023/01/18 07:35:20;;;;;;;9.02;7.68;;;10.20;99.90;;;;;;5101820;28;20426;-89
2023/01/18 07:37:51;;;;;;;7.05;5.18;;;10.20;99.90;;;;;;5099134;28;20202;-90
2023/01/18 07:40:20;;;;;;;6.88;6.20;;;10.10;99.90;;;;;;5104048;28;20175;-90
2023/01/18 07:42:46;;;;;;;6.18;4.75;;;10.10;99.90;;;;;;5088854;28;20204;-87
2023/01/18 07:45:12;;;;;;;5.65;4.55;;;10.00;99.90;;;;;;5086622;28;20317;-87
2023/01/18 07:47:42;;;;;;;5.00;4.03;;;10.00;99.90;;;;;;5086606;28;20501;-86
2023/01/18 07:50:08;;;;;;;6.88;5.20;;;9.90;99.90;;;;;;5090725;28;20168;-87
2023/01/18 07:52:34;;;;;;;6.15;5.03;;;9.90;99.90;;;;;;5105128;28;22097;-88
2023/01/18 07:55:00;;;;;;;4.10;3.70;;;9.90;99.90;;;;;;5098458;28;20281;-88
2023/01/18 07:57:26;;;;;;;8.53;5.50;;;9.90;99.90;;;;;;5088958;28;20440;-86
2023/01/18 07:59:51;;;;;;;15.13;9.20;;;10.00;99.90;;;;;;5099240;28;20180;-85
2023/01/18 08:02:17;;;;;;;7.30;6.07;;;10.00;99.90;;;;;;5108866;28;20281;-88
2023/01/18 08:04:47;;;;;;;6.43;4.50;;;10.00;99.90;;;;;;5099726;28;20210;-88
2023/01/18 08:07:13;;;;;;;5.47;4.97;;;10.00;99.90;;;;;;5091850;28;20476;-88
2023/01/18 08:09:38;;;;;;;5.43;4.17;;;9.90;99.90;;;;;;5095863;28;20649;-84
2023/01/18 08:12:06;;;;;;;6.53;5.10;;;9.80;99.90;;;;;;5096898;28;20233;-86
2023/01/18 08:14:32;;;;;;;8.55;5.00;;;9.80;99.90;;;;;;5114392;28;20209;-85
2023/01/18 08:16:58;;;;;;;6.90;5.07;;;9.90;99.90;;;;;;5104590;28;20180;-87
2023/01/18 08:19:24;;;;;;;4.37;3.87;;;10.40;99.90;;;;;;5117036;28;20491;-88
2023/01/18 08:21:49;;;;;;;4.63;4.23;;;11.30;99.90;;;;;;5105227;28;20175;-89
2023/01/18 08:24:15;;;;;;;5.63;3.17;;;12.20;99.90;;;;;;5102421;28;20176;-87
2023/01/18 08:26:41;;;;;;;2.57;2.10;;;13.00;99.90;;;;;;5102574;28;20252;-88
2023/01/18 08:29:06;;;;;;;3.20;2.87;;;13.60;99.90;;;;;;5107148;28;20234;-89
2023/01/18 08:31:32;;;;;;;2.20;1.97;;;13.70;99.90;;;;;;5109014;28;20504;-85
2023/01/18 08:33:57;;;;;;;5.93;4.10;;;13.90;99.90;;;;;;5092478;28;20214;-88
2023/01/18 08:36:24;;;;;;;3.30;3.00;;;13.90;99.90;;;;;;5092752;28;20203;-88
2023/01/18 08:38:58;;;;;;;2.33;2.07;;;13.40;99.90;;;;;;5090990;28;20223;-88
2023/01/18 08:41:27;;;;;;;2.93;1.90;;;13.00;99.90;;;;;;5104447;28;20412;-86
2023/01/18 08:43:54;;;;;;;2.93;2.33;;;12.60;99.90;;;;;;5092888;28;20759;-87
2023/01/18 08:46:20;;;;;;;2.57;2.33;;;12.50;99.90;;;;;;5096980;28;20458;-88
2023/01/18 08:48:51;;;;;;;2.53;2.17;;;12.90;99.90;;;;;;5110528;28;20563;-88
2023/01/18 08:51:17;;;;;;;1.70;1.60;;;13.20;99.90;;;;;;5103877;28;20775;-88
2023/01/18 08:53:43;;;;;;;2.60;2.23;;;13.20;99.90;;;;;;5098046;28;20980;-85
2023/01/18 08:56:09;;;;;;;3.47;3.00;;;12.80;99.90;;;;;;5102044;28;20480;-87
2023/01/18 08:58:35;;;;;;;2.60;2.40;;;12.50;99.90;;;;;;5095506;28;20994;-88
2023/01/18 09:01:08;;;;;;;5.87;5.30;;;12.70;99.90;;;;;;5094387;28;20187;-88
2023/01/18 09:03:35;;;;;;;3.73;3.43;;;12.90;99.90;;;;;;5101402;28;20444;-88
2023/01/18 09:06:02;;;;;;;2.67;2.47;;;12.70;99.90;;;;;;5097359;28;20421;-89
2023/01/18 09:08:28;;;;;;;6.30;2.83;;;12.40;99.90;;;;;;5103863;28;20475;-90
2023/01/18 09:10:54;;;;;;;2.17;1.97;;;12.30;99.90;;;;;;5101765;28;20436;-92
2023/01/18 09:13:20;;;;;;;2.27;2.07;;;12.10;99.90;;;;;;5108055;28;20202;-92
2023/01/18 09:15:45;;;;;;;2.30;1.97;;;11.90;99.90;;;;;;5111811;28;20770;-91
2023/01/18 09:18:12;;;;;;;2.30;2.10;;;11.70;99.90;;;;;;5099946;28;20200;-89
2023/01/18 09:20:38;;;;;;;2.50;2.00;;;11.60;99.90;;;;;;5097480;28;20176;-89
2023/01/18 09:23:09;;;;;;;1.83;1.73;;;11.50;99.90;;;;;;5105030;28;20450;-92
2023/01/18 09:25:35;;;;;;;1.27;1.17;;;11.60;99.90;;;;;;5098457;28;20659;-86
2023/01/18 09:28:03;;;;;;;2.20;1.90;;;12.30;99.90;;;;;;5102924;28;20472;-93
2023/01/18 09:30:29;;;;;;;1.63;1.53;;;13.10;99.90;;;;;;5098697;28;20424;-93
2023/01/18 09:32:56;;;;;;;1.60;1.50;;;13.60;99.90;;;;;;5102940;28;20459;-88
2023/01/18 09:35:22;;;;;;;3.40;2.57;;;14.20;99.90;;;;;;5097578;28;20425;-93
2023/01/18 09:37:48;;;;;;;8.00;7.20;;;14.50;99.90;;;;;;5100851;28;21002;-88
2023/01/18 09:40:19;;;;;;;19.00;14.30;;;14.20;99.90;;;;;;5102054;28;20568;-88
2023/01/18 09:42:47;;;;;;;7.17;6.37;;;14.50;99.90;;;;;;5097698;28;20677;-92
2023/01/18 09:45:34;;;;;;;4.30;3.93;;;14.50;99.90;;;;;;5099780;28;20472;-93
2023/01/18 09:48:30;;;;;;;3.30;3.10;;;14.20;99.90;;;;;;5095491;28;20559;-93
2023/01/18 09:51:01;;;;;;;2.53;2.33;;;14.30;99.90;;;;;;5093346;28;20457;-92
2023/01/18 09:53:35;;;;;;;1.63;1.53;;;14.90;99.90;;;;;;5109012;28;20454;-88
2023/01/18 09:56:17;;;;;;;2.27;1.83;;;15.30;99.90;;;;;;5099725;28;20472;-92
2023/01/18 09:59:24;;;;;;;2.37;2.17;;;16.00;99.90;;;;;;5104566;28;20490;-92
2023/01/18 10:01:51;;;;;;;3.27;2.50;;;16.30;99.90;;;;;;5104369;28;20428;-92
2023/01/18 10:04:23;;;;;;;4.27;3.37;;;16.30;99.90;;;;;;5104951;28;20432;-92
2023/01/18 10:06:58;;;;;;;1.37;1.27;;;15.90;99.90;;;;;;5095196;28;20945;-90
2023/01/18 10:09:28;;;;;;;1.20;1.10;;;15.60;99.90;;;;;;5095891;28;20546;-89
2023/01/18 10:12:00;;;;;;;1.60;1.50;;;15.30;99.90;;;;;;5091758;28;20807;-88
2023/01/18 10:14:58;;;;;;;2.23;1.30;;;15.30;99.90;;;;;;5103095;28;20569;-91
2023/01/18 10:17:34;;;;;;;1.50;1.20;;;15.20;99.90;;;;;;5089096;28;20467;-89
2023/01/18 10:20:00;;;;;;;3.00;2.10;;;14.70;99.90;;;;;;5094130;28;20627;-89
2023/01/18 10:23:17;;;;;;;1.20;1.10;;;14.40;99.90;;;;;;5104329;28;20447;-89
2023/01/18 10:26:08;;;;;;;2.77;2.27;;;14.00;99.90;;;;;;5078772;28;20433;-91
2023/01/18 10:28:47;;;;;;;2.13;1.67;;;13.60;99.90;;;;;;5086012;28;20551;-89
2023/01/18 10:31:37;;;;;;;2.80;1.90;;;13.30;99.90;;;;;;5100867;28;20463;-90
2023/01/18 10:34:15;;;;;;;0.83;0.83;;;13.20;99.90;;;;;;5115737;28;20471;-90
2023/01/18 10:36:45;;;;;;;2.60;1.90;;;13.20;99.90;;;;;;5101283;28;20733;-88
2023/01/18 10:39:35;;;;;;;2.07;1.87;;;13.30;99.90;;;;;;5101581;28;20425;-89
2023/01/18 10:42:07;;;;;;;2.10;1.90;;;13.50;99.90;;;;;;5103073;28;20431;-89
2023/01/18 10:44:33;;;;;;;1.67;1.40;;;13.60;99.90;;;;;;5100004;28;20508;-88
2023/01/18 10:47:00;;;;;;;1.20;1.10;;;13.70;99.90;;;;;;5110362;28;20525;-90
2023/01/18 10:49:36;;;;;;;1.30;1.20;;;13.70;99.90;;;;;;5102655;28;20195;-89
2023/01/18 10:52:25;;;;;;;1.00;0.90;;;13.50;99.90;;;;;;5095315;28;21010;-89
2023/01/18 10:55:00;;;;;;;1.00;1.00;;;13.50;99.90;;;;;;5100352;28;20444;-89
2023/01/18 10:57:34;;;;;;;1.67;1.50;;;13.50;99.90;;;;;;5094740;28;20501;-90
2023/01/18 11:00:00;;;;;;;1.50;1.30;;;13.60;99.90;;;;;;5102848;28;20432;-88
2023/01/18 11:02:36;;;;;;;7.30;4.43;;;13.50;99.90;;;;;;5105440;28;20896;-90
2023/01/18 11:05:14;;;;;;;9.47;5.20;;;13.40;99.90;;;;;;5108374;28;20424;-90
2023/01/18 11:07:41;;;;;;;1.93;1.70;;;13.30;99.90;;;;;;5098976;28;20473;-90
2023/01/18 11:10:25;;;;;;;11.03;6.47;;;13.30;99.90;;;;;;5104333;28;20451;-91
2023/01/18 11:12:51;;;;;;;2.73;2.20;;;13.30;99.90;;;;;;5098885;28;20468;-87
2023/01/18 11:15:17;;;;;;;2.60;2.40;;;13.40;99.90;;;;;;5094501;28;20532;-89
2023/01/18 11:17:53;;;;;;;3.03;2.77;;;13.50;99.90;;;;;;5090054;28;20449;-87
2023/01/18 11:20:29;;;;;;;17.23;15.40;;;13.70;99.90;;;;;;5090951;28;20447;-88
2023/01/18 11:22:57;;;;;;;3.67;2.90;;;13.70;99.90;;;;;;5103677;28;20452;-89
2023/01/18 11:25:24;;;;;;;6.80;2.50;;;13.60;99.90;;;;;;5095880;28;20436;-89
2023/01/18 11:27:50;;;;;;;5.57;4.97;;;13.50;99.90;;;;;;5092694;28;20533;-90
2023/01/18 11:30:24;;;;;;;3.20;2.43;;;13.50;99.90;;;;;;5098380;28;20417;-89
2023/01/18 11:32:53;;;;;;;4.33;3.23;;;13.30;99.90;;;;;;5093447;28;20208;-88
2023/01/18 11:35:36;;;;;;;9.80;3.20;;;13.20;99.90;;;;;;5097031;28;20421;-90
2023/01/18 11:38:05;;;;;;;1.67;1.57;;;13.10;99.90;;;;;;5100378;28;20460;-89
2023/01/18 11:40:33;;;;;;;2.87;1.80;;;13.10;99.90;;;;;;5089392;28;20418;-89
2023/01/18 11:43:19;;;;;;;1.40;0.93;;;13.30;99.90;;;;;;5098865;28;21122;-89
2023/01/18 11:46:24;;;;;;;4.17;3.70;;;13.50;99.90;;;;;;5099015;28;20460;-89
2023/01/18 11:48:59;;;;;;;3.67;2.90;;;13.50;99.90;;;;;;5068850;28;21128;-89
2023/01/18 11:51:41;;;;;;;3.20;2.90;;;13.70;99.90;;;;;;5097530;28;20458;-92
2023/01/18 11:54:36;;;;;;;2.40;2.20;;;13.90;99.90;;;;;;5102428;28;20484;-89
2023/01/18 11:57:03;;;;;;;1.80;1.50;;;13.90;99.90;;;;;;5105304;28;20827;-92
2023/01/18 11:59:42;;;;;;;2.23;2.03;;;13.90;99.90;;;;;;5096384;28;20828;-89
2023/01/18 12:02:26;;;;;;;3.33;2.80;;;14.10;99.90;;;;;;5108918;28;20486;-89
2023/01/18 12:05:24;;;;;;;1.70;1.60;;;14.20;99.90;;;;;;5109864;28;20496;-91
2023/01/18 12:08:14;;;;;;;3.40;3.10;;;14.40;99.90;;;;;;5099114;28;20511;-92
2023/01/18 12:10:52;;;;;;;3.33;3.03;;;14.50;99.90;;;;;;5093417;28;20804;-89
2023/01/18 12:13:32;;;;;;;2.40;1.00;;;14.60;99.90;;;;;;5097553;28;20460;-92
2023/01/18 12:16:16;;;;;;;5.67;2.20;;;14.70;99.90;;;;;;5097867;28;20634;-89
2023/01/18 12:19:00;;;;;;;1.67;1.57;;;14.60;99.90;;;;;;5100070;28;20440;-86
2023/01/18 12:21:47;;;;;;;0.90;0.90;;;14.60;99.90;;;;;;5100903;28;20761;-91
2023/01/18 12:24:34;;;;;;;2.00;1.70;;;14.50;99.90;;;;;;5101458;28;20398;-88
2023/01/18 12:27:41;;;;;;;3.70;3.40;;;14.20;99.90;;;;;;5098280;28;20452;-87
2023/01/18 12:30:25;;;;;;;1.50;1.20;;;14.20;99.90;;;;;;5031660;28;20437;-89
2023/01/18 12:33:15;;;;;;;1.50;1.13;;;14.40;99.90;;;;;;5089524;28;20436;-87
2023/01/18 12:35:49;;;;;;;1.40;1.30;;;14.50;99.90;;;;;;5100493;28;20803;-89
2023/01/18 12:38:22;;;;;;;1.70;0.97;;;14.60;99.90;;;;;;5093295;28;20444;-89
2023/01/18 12:40:54;;;;;;;2.07;1.70;;;14.70;99.90;;;;;;5097262;28;20495;-89
2023/01/18 12:43:19;;;;;;;3.47;1.87;;;14.70;99.90;;;;;;5104215;28;20451;-86
2023/01/18 12:46:03;;;;;;;1.40;1.10;;;14.60;99.90;;;;;;5107570;28;20420;-87
2023/01/18 12:48:55;;;;;;;1.27;1.10;;;14.60;99.90;;;;;;5117522;28;20212;-86
2023/01/18 12:51:24;;;;;;;0.80;0.80;;;14.60;99.90;;;;;;5096619;28;20524;-89
2023/01/18 12:53:54;;;;;;;0.90;0.90;;;14.70;99.90;;;;;;5101014;28;20440;-87
2023/01/18 12:56:31;;;;;;;3.97;2.30;;;14.80;99.90;;;;;;5109820;28;20459;-89
2023/01/18 12:59:14;;;;;;;1.47;1.10;;;14.90;99.90;;;;;;5097352;28;20464;-88
2023/01/18 13:01:47;;;;;;;2.67;1.90;;;15.00;99.90;;;;;;5104370;28;20452;-92
2023/01/18 13:04:28;;;;;;;1.17;1.07;;;14.90;99.90;;;;;;5101216;28;20456;-89
2023/01/18 13:07:00;;;;;;;1.37;1.13;;;14.80;99.90;;;;;;5103159;28;20427;-92
2023/01/18 13:09:33;;;;;;;3.83;0.90;;;14.70;99.90;;;;;;5111821;28;20427;-88
2023/01/18 13:12:02;;;;;;;1.10;0.90;;;14.80;99.90;;;;;;5104660;28;20523;-93
2023/01/18 13:14:47;;;;;;;1.17;1.07;;;14.80;99.90;;;;;;5106164;28;20908;-88
2023/01/18 13:17:40;;;;;;;4.47;1.30;;;14.80;99.90;;;;;;5102014;28;20830;-92
2023/01/18 13:20:14;;;;;;;0.93;0.80;;;14.90;99.90;;;;;;5098408;28;20472;-88
2023/01/18 13:23:23;;;;;;;1.90;1.30;;;14.90;99.90;;;;;;5104097;28;20808;-88
2023/01/18 13:25:49;;;;;;;13.30;11.90;;;15.10;99.90;;;;;;5105516;28;20463;-91
2023/01/18 13:28:23;;;;;;;4.20;2.20;;;15.20;99.90;;;;;;5110301;27;20491;-88
2023/01/18 13:30:57;;;;;;;2.03;1.83;;;15.30;99.90;;;;;;5100242;28;20542;-89
2023/01/18 13:33:29;;;;;;;1.63;1.20;;;15.30;99.90;;;;;;5098173;28;20442;-89
2023/01/18 13:36:11;;;;;;;1.77;1.67;;;15.30;99.90;;;;;;5098143;28;20780;-84
2023/01/18 13:38:47;;;;;;;2.10;2.00;;;15.50;99.90;;;;;;5105938;28;20444;-88